Orbital elements of FENGYUN 1C DEB
| Launched | 9 May 1999 |
| Flight ended | – |
| Launch site | Taiyuan Space Center, PRC |
| Owner | People's Republic of China |
| NORAD ID | 30312 |
| Date fetched |
Epoch osculation |
Inc. [°] |
Ecc. | RA asc node [hr] |
Arg Peri. [°] |
Mean anom [°] |
Mean motion [rev/day] |
Abs. mag |
| Date fetched |
Epoch osculation |
Inc. [°] |
Ecc. | RA asc node [hr] |
Arg Peri. [°] |
Mean anom [°] |
Mean motion [rev/day] |
Abs. mag |
| 2026 May 08 17:57 | 2026 May 05 06:03:17 | 98.8565 | 0.00126 | 14.4131 | 141.7662 | 280.7803 | 14.48405 | – |
| 2026 May 07 17:58 | 2026 May 05 06:03:17 | 98.8565 | 0.00126 | 14.4131 | 141.7662 | 280.7803 | 14.48405 | – |
| 2026 May 06 17:57 | 2026 May 05 06:03:17 | 98.8565 | 0.00126 | 14.4131 | 141.7662 | 280.7803 | 14.48405 | – |
| 2026 May 05 17:57 | 2026 May 05 06:03:17 | 98.8565 | 0.00126 | 14.4131 | 141.7662 | 280.7803 | 14.48405 | – |
| 2026 May 04 17:57 | 2026 Apr 30 05:04:22 | 98.8567 | 0.00126 | 14.0609 | 153.7228 | 280.7803 | 14.48405 | – |
| 2026 May 03 17:57 | 2026 Apr 30 05:04:22 | 98.8567 | 0.00126 | 14.0609 | 153.7228 | 280.7803 | 14.48405 | – |
| 2026 May 02 17:57 | 2026 Apr 30 05:04:22 | 98.8567 | 0.00126 | 14.0609 | 153.7228 | 280.7803 | 14.48405 | – |
| 2026 May 01 17:56 | 2026 Apr 30 05:04:22 | 98.8567 | 0.00126 | 14.0609 | 153.7228 | 280.7803 | 14.48405 | – |
| 2026 Apr 30 17:56 | 2026 Apr 30 05:04:22 | 98.8567 | 0.00126 | 14.0609 | 153.7228 | 280.7803 | 14.48405 | – |
| 2026 Apr 29 17:57 | 2026 Apr 24 04:37:04 | 98.8562 | 0.00125 | 13.6405 | 169.5659 | 280.7803 | 14.48405 | – |
| 2026 Apr 28 17:56 | 2026 Apr 24 04:37:04 | 98.8562 | 0.00125 | 13.6405 | 169.5659 | 280.7803 | 14.48405 | – |
| 2026 Apr 27 17:58 | 2026 Apr 24 04:37:04 | 98.8562 | 0.00125 | 13.6405 | 169.5659 | 280.7803 | 14.48405 | – |
| 2026 Apr 26 17:58 | 2026 Apr 24 04:37:04 | 98.8562 | 0.00125 | 13.6405 | 169.5659 | 280.7803 | 14.48405 | – |
| 2026 Apr 25 17:58 | 2026 Apr 24 04:37:04 | 98.8562 | 0.00125 | 13.6405 | 169.5659 | 280.7803 | 14.48405 | – |
| 2026 Apr 24 17:59 | 2026 Apr 24 04:37:04 | 98.8562 | 0.00125 | 13.6405 | 169.5659 | 280.7803 | 14.48405 | – |
| 2026 Apr 23 17:57 | 2026 Apr 19 05:13:19 | 98.8568 | 0.00122 | 13.2930 | 181.8392 | 280.7803 | 14.48405 | – |
| 2026 Apr 22 17:57 | 2026 Apr 19 05:13:19 | 98.8568 | 0.00122 | 13.2930 | 181.8392 | 280.7803 | 14.48405 | – |
| 2026 Apr 21 17:57 | 2026 Apr 19 05:13:19 | 98.8568 | 0.00122 | 13.2930 | 181.8392 | 280.7803 | 14.48405 | – |
| 2026 Apr 20 17:57 | 2026 Apr 19 05:13:19 | 98.8568 | 0.00122 | 13.2930 | 181.8392 | 280.7803 | 14.48405 | – |
| 2026 Apr 19 17:58 | 2026 Apr 19 05:13:19 | 98.8568 | 0.00122 | 13.2930 | 181.8392 | 280.7803 | 14.48405 | – |
| 2026 Apr 18 17:56 | 2026 Apr 13 04:57:32 | 98.8560 | 0.00118 | 12.8731 | 198.0638 | 280.7803 | 14.48405 | – |
| 2026 Apr 16 17:57 | 2026 Apr 13 04:57:32 | 98.8560 | 0.00118 | 12.8731 | 198.0638 | 280.7803 | 14.48405 | – |
| 2026 Apr 14 17:57 | 2026 Apr 13 04:57:32 | 98.8560 | 0.00118 | 12.8731 | 198.0638 | 280.7803 | 14.48405 | – |
| 2026 Apr 13 17:57 | 2026 Apr 13 04:57:32 | 98.8560 | 0.00118 | 12.8731 | 198.0638 | 280.7803 | 14.48405 | – |
| 2026 Apr 12 17:57 | 2026 Apr 08 05:33:21 | 98.8552 | 0.00113 | 12.5257 | 210.7030 | 280.7803 | 14.48405 | – |
| 2026 Apr 11 17:57 | 2026 Apr 08 05:33:21 | 98.8552 | 0.00113 | 12.5257 | 210.7030 | 280.7803 | 14.48405 | – |